createdAt,value
2022-12-01T00:03:32.617Z,7.04
2022-12-01T00:08:40.056Z,7.02
2022-12-01T00:21:02.119Z,7.11
2022-12-01T00:26:56.480Z,7.14
2022-12-01T00:32:43.574Z,7.23
2022-12-01T00:38:33.612Z,7.40
2022-12-01T00:44:20.849Z,7.42
2022-12-01T00:50:08.392Z,7.43
2022-12-01T00:55:55.632Z,7.43
2022-12-01T01:01:44.958Z,7.43
2022-12-01T01:07:35.426Z,7.47
2022-12-01T01:13:22.405Z,7.48
2022-12-01T01:19:09.381Z,7.50
2022-12-01T01:24:58.824Z,7.61
2022-12-01T01:30:47.275Z,7.61
2022-12-01T01:36:34.422Z,7.68
2022-12-01T01:42:29.405Z,7.57
2022-12-01T01:48:19.262Z,7.55
2022-12-01T01:54:17.130Z,7.67
2022-12-01T02:00:22.931Z,7.51
2022-12-01T02:06:11.267Z,7.55
2022-12-01T02:11:58.179Z,7.57
2022-12-01T02:17:54.412Z,7.64
2022-12-01T02:24:12.451Z,7.41
2022-12-01T02:30:17.973Z,7.33
2022-12-01T02:36:29.461Z,7.22
2022-12-01T02:42:53.849Z,7.33
2022-12-01T02:48:48.071Z,7.17
2022-12-01T02:54:36.322Z,7.22
2022-12-01T03:00:23.240Z,7.04
2022-12-01T03:06:41.610Z,7.09
2022-12-01T03:12:31.274Z,7.19
2022-12-01T03:18:24.256Z,7.07
2022-12-01T03:24:16.950Z,7.12
2022-12-01T03:30:04.643Z,7.26
2022-12-01T03:35:56.394Z,7.28
2022-12-01T03:41:47.213Z,7.20
2022-12-01T03:47:37.340Z,7.20
2022-12-01T03:53:31.671Z,7.20
2022-12-01T03:59:21.269Z,7.20
2022-12-01T04:05:09.423Z,7.23
2022-12-01T04:10:56.865Z,7.27
2022-12-01T04:16:43.884Z,7.25
2022-12-01T04:22:30.549Z,7.17
2022-12-01T04:28:17.442Z,7.28
2022-12-01T04:34:04.501Z,7.30
2022-12-01T04:39:51.622Z,7.29
2022-12-01T04:45:41.172Z,7.23
2022-12-01T04:51:27.961Z,7.24
2022-12-01T04:57:14.909Z,7.16
2022-12-01T05:03:02.392Z,7.20
2022-12-01T05:08:50.084Z,7.09
2022-12-01T05:14:36.728Z,7.01
2022-12-01T05:20:44.145Z,7.04
2022-12-01T05:26:31.175Z,6.82
2022-12-01T05:32:18.110Z,6.72
2022-12-01T05:38:08.049Z,6.86
2022-12-01T05:43:55.304Z,6.80
2022-12-01T05:49:42.030Z,7.08
2022-12-01T05:55:28.771Z,7.00
2022-12-01T06:01:15.939Z,7.10
2022-12-01T06:07:02.755Z,7.13
2022-12-01T06:12:51.238Z,6.92
2022-12-01T06:18:40.913Z,6.71
2022-12-01T06:24:27.850Z,6.77
2022-12-01T06:30:14.815Z,6.84
2022-12-01T06:36:10.979Z,6.81
2022-12-01T06:41:59.325Z,6.73
2022-12-01T06:47:48.245Z,6.84
2022-12-01T06:53:35.340Z,6.69
2022-12-01T06:59:22.410Z,6.66
2022-12-01T07:05:10.323Z,6.71
2022-12-01T07:11:01.691Z,6.76
2022-12-01T07:16:48.688Z,6.68
2022-12-01T07:22:36.255Z,6.55
2022-12-01T07:28:26.680Z,6.56
2022-12-01T07:34:13.745Z,6.66
2022-12-01T07:40:00.853Z,6.61
2022-12-01T07:45:47.583Z,6.43
2022-12-01T07:51:42.697Z,6.53
2022-12-01T07:57:37.716Z,6.55
2022-12-01T08:03:29.677Z,6.41
2022-12-01T08:09:19.002Z,6.44
2022-12-01T08:15:09.517Z,6.54
2022-12-01T08:21:11.467Z,6.72
2022-12-01T08:27:00.808Z,6.65
2022-12-01T08:32:48.189Z,6.55
2022-12-01T08:38:35.098Z,6.77
2022-12-01T08:44:22.190Z,6.98
2022-12-01T08:50:09.386Z,7.10
2022-12-01T08:55:59.841Z,7.20
2022-12-01T09:01:52.606Z,7.25
2022-12-01T09:07:39.529Z,7.29
2022-12-01T09:13:28.058Z,7.35
2022-12-01T09:19:24.247Z,7.42
2022-12-01T09:25:14.820Z,7.36
2022-12-01T09:31:13.020Z,7.43
2022-12-01T09:36:59.817Z,7.60
2022-12-01T09:42:47.642Z,7.71
2022-12-01T09:48:42.907Z,7.72
2022-12-01T09:54:29.989Z,7.83
2022-12-01T10:00:20.268Z,8.02
2022-12-01T10:06:32.097Z,8.08
2022-12-01T10:12:26.299Z,8.13
2022-12-01T10:18:37.897Z,8.36
2022-12-01T10:24:31.771Z,8.18
2022-12-01T10:30:21.356Z,8.05
2022-12-01T10:36:10.148Z,8.10
2022-12-01T10:42:15.205Z,8.36
2022-12-01T10:48:25.919Z,8.45
2022-12-01T10:54:12.986Z,8.42
2022-12-01T11:00:07.440Z,8.57
2022-12-01T11:06:03.743Z,8.57
2022-12-01T11:12:00.245Z,8.69
2022-12-01T11:17:47.951Z,8.81
2022-12-01T11:23:45.392Z,8.72
2022-12-01T11:29:37.937Z,8.67
2022-12-01T11:35:28.119Z,8.72
2022-12-01T11:41:42.952Z,8.88
2022-12-01T11:47:30.228Z,8.90
2022-12-01T11:53:28.594Z,8.84
2022-12-01T11:59:17.443Z,8.74
2022-12-01T12:05:27.963Z,8.87
2022-12-01T12:11:21.573Z,8.94
2022-12-01T12:17:34.565Z,9.11
2022-12-01T12:23:45.877Z,9.14
2022-12-01T12:29:45.109Z,9.12
2022-12-01T12:35:59.237Z,9.12
2022-12-01T12:41:50.624Z,9.00
2022-12-01T12:48:08.540Z,8.84
2022-12-01T12:54:13.013Z,8.80
2022-12-01T13:00:08.489Z,9.17
2022-12-01T13:06:15.599Z,8.91
2022-12-01T13:12:10.511Z,8.80
2022-12-01T13:18:36.396Z,8.91
2022-12-01T13:24:27.756Z,8.74
2022-12-01T13:30:27.568Z,8.74
2022-12-01T13:36:45.149Z,8.77
2022-12-01T13:42:28.405Z,8.89
2022-12-01T13:48:49.925Z,8.64
2022-12-01T13:54:39.346Z,8.91
2022-12-01T14:00:30.048Z,9.02
2022-12-01T14:06:28.457Z,8.77
2022-12-01T14:12:23.097Z,8.68
2022-12-01T14:18:24.974Z,8.53
2022-12-01T14:24:38.368Z,8.55
2022-12-01T14:30:47.765Z,8.53
2022-12-01T14:36:51.861Z,8.60
2022-12-01T14:43:01.735Z,8.65
2022-12-01T14:48:50.418Z,8.60
2022-12-01T14:54:45.400Z,8.64
2022-12-01T15:00:36.942Z,8.53
2022-12-01T15:06:28.893Z,8.59
2022-12-01T15:12:27.397Z,8.65
2022-12-01T15:18:31.092Z,8.76
2022-12-01T15:24:26.977Z,8.43
2022-12-01T15:30:19.415Z,8.44
2022-12-01T15:36:09.652Z,8.45
2022-12-01T15:41:57.092Z,8.48
2022-12-01T15:47:52.343Z,8.51
2022-12-01T15:53:56.235Z,8.34
2022-12-01T15:59:47.069Z,8.16
2022-12-01T16:05:38.769Z,8.22
2022-12-01T16:11:34.102Z,8.13
2022-12-01T16:17:23.596Z,8.03
2022-12-01T16:23:15.667Z,7.93
2022-12-01T16:29:19.459Z,7.88
2022-12-01T16:35:33.891Z,7.67
2022-12-01T16:41:38.834Z,7.47
2022-12-01T16:47:25.802Z,7.55
2022-12-01T16:53:14.231Z,7.66
2022-12-01T16:59:01.898Z,7.76
2022-12-01T17:04:49.938Z,7.77
2022-12-01T17:10:46.987Z,7.73
2022-12-01T17:16:35.146Z,7.97
2022-12-01T17:22:23.072Z,7.82
2022-12-01T17:28:12.124Z,7.85
2022-12-01T17:33:59.149Z,8.00
2022-12-01T17:39:46.112Z,8.07
2022-12-01T17:45:32.841Z,7.91
2022-12-01T17:51:19.755Z,7.95
2022-12-01T17:57:07.527Z,8.21
2022-12-01T18:02:54.492Z,8.04
2022-12-01T18:08:43.662Z,7.99
2022-12-01T18:14:32.910Z,7.83
2022-12-01T18:20:19.738Z,7.79
2022-12-01T18:26:15.239Z,7.97
2022-12-01T18:32:02.963Z,7.80
2022-12-01T18:37:52.229Z,7.78
2022-12-01T18:43:39.580Z,7.73
2022-12-01T18:49:54.678Z,7.91
2022-12-01T18:55:50.817Z,7.88
2022-12-01T19:01:53.465Z,7.91
2022-12-01T19:14:47.420Z,7.89
2022-12-01T19:21:14.247Z,7.95
2022-12-01T19:28:30.351Z,7.96
2022-12-01T19:36:05.846Z,7.80
2022-12-01T19:41:26.387Z,7.83
2022-12-01T19:47:26.703Z,7.95
2022-12-01T19:59:27.797Z,7.83
2022-12-01T20:05:20.685Z,7.48
2022-12-01T20:11:16.701Z,7.38
2022-12-01T20:17:05.855Z,7.29
2022-12-01T20:22:52.762Z,7.35
2022-12-01T20:28:56.199Z,7.48
2022-12-01T20:34:53.335Z,7.38
2022-12-01T20:48:39.167Z,7.45
2022-12-01T20:54:30.102Z,7.36
2022-12-01T21:00:22.140Z,7.43
2022-12-01T21:06:19.375Z,7.62
2022-12-01T21:12:33.967Z,7.72
2022-12-01T21:19:30.784Z,7.20
2022-12-01T21:47:32.198Z,7.55
2022-12-01T21:53:47.010Z,7.51
2022-12-01T22:00:43.892Z,7.43
2022-12-01T22:07:03.436Z,7.56
2022-12-01T22:12:50.495Z,7.72
2022-12-01T22:18:39.597Z,7.52
2022-12-01T22:24:29.543Z,7.48
2022-12-01T22:30:36.355Z,7.17
2022-12-01T22:36:44.615Z,7.45
2022-12-01T22:42:51.189Z,7.37
2022-12-01T22:48:50.099Z,7.38
2022-12-01T22:54:44.932Z,7.26
2022-12-01T23:00:32.620Z,7.17
2022-12-01T23:06:50.323Z,7.49
2022-12-01T23:12:37.549Z,7.43
2022-12-01T23:18:36.580Z,7.68
2022-12-01T23:24:23.534Z,7.75
2022-12-01T23:30:11.800Z,7.85
2022-12-01T23:36:03.784Z,7.58
2022-12-01T23:41:51.887Z,7.84
2022-12-01T23:47:41.370Z,7.82
2022-12-01T23:53:32.922Z,7.82
2022-12-01T23:59:20.371Z,7.50
